sensor_id;sensor_type;location;lat;lon;timestamp;P1;durP1;ratioP1;P2;durP2;ratioP2
173;SDS011;75;48.784;9.364;2023-04-24T00:00:34;4.17;;;2.30;;
173;SDS011;75;48.784;9.364;2023-04-24T00:03:19;3.80;;;2.30;;
173;SDS011;75;48.784;9.364;2023-04-24T00:06:04;3.47;;;2.40;;
173;SDS011;75;48.784;9.364;2023-04-24T00:08:51;4.07;;;2.40;;
173;SDS011;75;48.784;9.364;2023-04-24T00:11:35;5.00;;;2.70;;
173;SDS011;75;48.784;9.364;2023-04-24T00:14:20;3.20;;;2.07;;
173;SDS011;75;48.784;9.364;2023-04-24T00:17:05;4.30;;;2.43;;
173;SDS011;75;48.784;9.364;2023-04-24T00:19:49;4.60;;;2.40;;
173;SDS011;75;48.784;9.364;2023-04-24T00:22:34;4.30;;;2.77;;
173;SDS011;75;48.784;9.364;2023-04-24T00:25:19;6.30;;;2.40;;
173;SDS011;75;48.784;9.364;2023-04-24T00:28:03;3.70;;;2.30;;
173;SDS011;75;48.784;9.364;2023-04-24T00:30:48;3.90;;;2.40;;
173;SDS011;75;48.784;9.364;2023-04-24T00:33:33;4.37;;;2.20;;
173;SDS011;75;48.784;9.364;2023-04-24T00:36:17;4.27;;;2.20;;
173;SDS011;75;48.784;9.364;2023-04-24T00:39:03;5.23;;;1.93;;
173;SDS011;75;48.784;9.364;2023-04-24T00:41:48;4.13;;;2.07;;
173;SDS011;75;48.784;9.364;2023-04-24T00:44:34;3.60;;;2.00;;
173;SDS011;75;48.784;9.364;2023-04-24T00:47:19;4.07;;;2.30;;
173;SDS011;75;48.784;9.364;2023-04-24T00:50:05;4.67;;;2.27;;
173;SDS011;75;48.784;9.364;2023-04-24T00:52:50;4.70;;;2.20;;
173;SDS011;75;48.784;9.364;2023-04-24T00:55:35;3.23;;;2.20;;
173;SDS011;75;48.784;9.364;2023-04-24T00:58:21;4.20;;;2.43;;
173;SDS011;75;48.784;9.364;2023-04-24T01:01:05;3.07;;;2.23;;
173;SDS011;75;48.784;9.364;2023-04-24T01:03:51;2.90;;;2.10;;
173;SDS011;75;48.784;9.364;2023-04-24T01:06:35;3.30;;;2.10;;
173;SDS011;75;48.784;9.364;2023-04-24T01:09:25;3.13;;;2.50;;
173;SDS011;75;48.784;9.364;2023-04-24T01:12:10;3.87;;;2.27;;
173;SDS011;75;48.784;9.364;2023-04-24T01:14:55;3.60;;;2.30;;
173;SDS011;75;48.784;9.364;2023-04-24T01:17:40;5.17;;;2.40;;
173;SDS011;75;48.784;9.364;2023-04-24T01:20:24;3.37;;;2.00;;
173;SDS011;75;48.784;9.364;2023-04-24T01:23:10;3.73;;;2.30;;
173;SDS011;75;48.784;9.364;2023-04-24T01:25:54;3.17;;;2.13;;
173;SDS011;75;48.784;9.364;2023-04-24T01:28:39;5.47;;;2.20;;
173;SDS011;75;48.784;9.364;2023-04-24T01:31:23;4.63;;;2.40;;
173;SDS011;75;48.784;9.364;2023-04-24T01:34:08;7.13;;;2.33;;
173;SDS011;75;48.784;9.364;2023-04-24T01:36:53;2.87;;;2.07;;
173;SDS011;75;48.784;9.364;2023-04-24T01:39:37;5.10;;;2.40;;
173;SDS011;75;48.784;9.364;2023-04-24T01:42:22;3.70;;;2.13;;
173;SDS011;75;48.784;9.364;2023-04-24T01:45:07;3.10;;;2.20;;
173;SDS011;75;48.784;9.364;2023-04-24T01:47:53;3.30;;;2.30;;
173;SDS011;75;48.784;9.364;2023-04-24T01:50:38;3.60;;;2.33;;
173;SDS011;75;48.784;9.364;2023-04-24T01:53:22;4.33;;;2.30;;
173;SDS011;75;48.784;9.364;2023-04-24T01:56:07;2.60;;;2.00;;
173;SDS011;75;48.784;9.364;2023-04-24T01:58:51;4.53;;;2.40;;
173;SDS011;75;48.784;9.364;2023-04-24T02:01:37;3.20;;;2.27;;
173;SDS011;75;48.784;9.364;2023-04-24T02:04:21;2.97;;;2.10;;
173;SDS011;75;48.784;9.364;2023-04-24T02:07:06;6.20;;;2.50;;
173;SDS011;75;48.784;9.364;2023-04-24T02:09:51;4.07;;;2.50;;
173;SDS011;75;48.784;9.364;2023-04-24T02:12:35;3.00;;;2.10;;
173;SDS011;75;48.784;9.364;2023-04-24T02:15:20;2.80;;;1.90;;
173;SDS011;75;48.784;9.364;2023-04-24T02:18:05;4.00;;;2.10;;
173;SDS011;75;48.784;9.364;2023-04-24T02:20:50;3.23;;;2.20;;
173;SDS011;75;48.784;9.364;2023-04-24T02:23:34;5.33;;;2.47;;
173;SDS011;75;48.784;9.364;2023-04-24T02:26:19;3.17;;;2.47;;
173;SDS011;75;48.784;9.364;2023-04-24T02:29:03;4.47;;;2.23;;
173;SDS011;75;48.784;9.364;2023-04-24T02:31:48;5.73;;;2.40;;
173;SDS011;75;48.784;9.364;2023-04-24T02:34:32;5.80;;;2.53;;
173;SDS011;75;48.784;9.364;2023-04-24T02:37:17;3.43;;;2.40;;
173;SDS011;75;48.784;9.364;2023-04-24T02:40:01;4.17;;;2.23;;
173;SDS011;75;48.784;9.364;2023-04-24T02:42:46;3.17;;;2.30;;
173;SDS011;75;48.784;9.364;2023-04-24T02:45:30;4.20;;;2.90;;
173;SDS011;75;48.784;9.364;2023-04-24T02:48:17;3.93;;;2.60;;
173;SDS011;75;48.784;9.364;2023-04-24T02:51:04;4.47;;;2.50;;
173;SDS011;75;48.784;9.364;2023-04-24T02:53:50;4.63;;;2.37;;
173;SDS011;75;48.784;9.364;2023-04-24T02:56:34;7.60;;;3.10;;
173;SDS011;75;48.784;9.364;2023-04-24T02:59:19;3.00;;;2.30;;
173;SDS011;75;48.784;9.364;2023-04-24T03:02:03;3.17;;;2.23;;
173;SDS011;75;48.784;9.364;2023-04-24T03:04:48;4.83;;;2.23;;
173;SDS011;75;48.784;9.364;2023-04-24T03:07:32;3.30;;;2.10;;
173;SDS011;75;48.784;9.364;2023-04-24T03:10:17;4.60;;;2.30;;
173;SDS011;75;48.784;9.364;2023-04-24T03:13:01;5.17;;;2.40;;
173;SDS011;75;48.784;9.364;2023-04-24T03:15:46;3.53;;;2.30;;
173;SDS011;75;48.784;9.364;2023-04-24T03:18:30;4.00;;;2.30;;
173;SDS011;75;48.784;9.364;2023-04-24T03:21:15;5.67;;;2.30;;
173;SDS011;75;48.784;9.364;2023-04-24T03:23:59;3.67;;;2.10;;
173;SDS011;75;48.784;9.364;2023-04-24T03:26:44;3.43;;;2.10;;
173;SDS011;75;48.784;9.364;2023-04-24T03:29:28;4.30;;;2.50;;
173;SDS011;75;48.784;9.364;2023-04-24T03:32:13;3.00;;;2.20;;
173;SDS011;75;48.784;9.364;2023-04-24T03:34:58;4.10;;;2.40;;
173;SDS011;75;48.784;9.364;2023-04-24T03:37:42;3.83;;;2.33;;
173;SDS011;75;48.784;9.364;2023-04-24T03:40:27;3.70;;;2.20;;
173;SDS011;75;48.784;9.364;2023-04-24T03:43:13;4.60;;;2.23;;
173;SDS011;75;48.784;9.364;2023-04-24T03:45:57;3.70;;;2.50;;
173;SDS011;75;48.784;9.364;2023-04-24T03:48:42;8.50;;;2.17;;
173;SDS011;75;48.784;9.364;2023-04-24T03:51:26;3.07;;;2.30;;
173;SDS011;75;48.784;9.364;2023-04-24T03:54:11;3.40;;;2.20;;
173;SDS011;75;48.784;9.364;2023-04-24T03:56:57;4.10;;;2.30;;
173;SDS011;75;48.784;9.364;2023-04-24T03:59:41;2.80;;;2.10;;
173;SDS011;75;48.784;9.364;2023-04-24T04:02:26;4.50;;;2.40;;
173;SDS011;75;48.784;9.364;2023-04-24T04:05:10;4.40;;;2.10;;
173;SDS011;75;48.784;9.364;2023-04-24T04:07:55;5.23;;;2.50;;
173;SDS011;75;48.784;9.364;2023-04-24T04:10:39;4.40;;;2.20;;
173;SDS011;75;48.784;9.364;2023-04-24T04:13:23;3.87;;;2.47;;
173;SDS011;75;48.784;9.364;2023-04-24T04:16:08;5.40;;;2.03;;
173;SDS011;75;48.784;9.364;2023-04-24T04:18:53;3.50;;;2.17;;
173;SDS011;75;48.784;9.364;2023-04-24T04:21:39;3.17;;;2.43;;
173;SDS011;75;48.784;9.364;2023-04-24T04:24:23;3.70;;;2.40;;
173;SDS011;75;48.784;9.364;2023-04-24T04:27:08;2.87;;;2.30;;
173;SDS011;75;48.784;9.364;2023-04-24T04:29:52;3.10;;;2.30;;
173;SDS011;75;48.784;9.364;2023-04-24T04:32:36;4.43;;;2.50;;
173;SDS011;75;48.784;9.364;2023-04-24T04:35:21;3.77;;;2.27;;
173;SDS011;75;48.784;9.364;2023-04-24T04:38:06;4.87;;;2.30;;
173;SDS011;75;48.784;9.364;2023-04-24T04:40:51;4.40;;;2.53;;
173;SDS011;75;48.784;9.364;2023-04-24T04:43:36;3.60;;;2.50;;
173;SDS011;75;48.784;9.364;2023-04-24T04:46:23;4.30;;;2.57;;
173;SDS011;75;48.784;9.364;2023-04-24T04:49:09;11.50;;;2.80;;
173;SDS011;75;48.784;9.364;2023-04-24T04:51:54;4.00;;;2.87;;
173;SDS011;75;48.784;9.364;2023-04-24T04:54:39;4.07;;;2.67;;
173;SDS011;75;48.784;9.364;2023-04-24T04:57:23;5.03;;;2.93;;
173;SDS011;75;48.784;9.364;2023-04-24T05:00:08;4.37;;;3.10;;
173;SDS011;75;48.784;9.364;2023-04-24T05:02:54;4.90;;;2.67;;
173;SDS011;75;48.784;9.364;2023-04-24T05:05:39;3.60;;;2.83;;
173;SDS011;75;48.784;9.364;2023-04-24T05:08:24;3.30;;;2.70;;
173;SDS011;75;48.784;9.364;2023-04-24T05:11:09;3.73;;;2.80;;
173;SDS011;75;48.784;9.364;2023-04-24T05:13:53;4.40;;;2.90;;
173;SDS011;75;48.784;9.364;2023-04-24T05:16:38;4.73;;;2.90;;
173;SDS011;75;48.784;9.364;2023-04-24T05:19:24;4.97;;;2.90;;
173;SDS011;75;48.784;9.364;2023-04-24T05:22:08;4.70;;;3.07;;
173;SDS011;75;48.784;9.364;2023-04-24T05:24:53;4.13;;;3.03;;
173;SDS011;75;48.784;9.364;2023-04-24T05:27:38;5.10;;;3.20;;
173;SDS011;75;48.784;9.364;2023-04-24T05:30:23;4.70;;;3.60;;
173;SDS011;75;48.784;9.364;2023-04-24T05:33:07;4.50;;;3.20;;
173;SDS011;75;48.784;9.364;2023-04-24T05:35:53;5.70;;;3.60;;
173;SDS011;75;48.784;9.364;2023-04-24T05:38:38;8.27;;;4.43;;
173;SDS011;75;48.784;9.364;2023-04-24T05:41:23;3.70;;;2.90;;
173;SDS011;75;48.784;9.364;2023-04-24T05:44:08;4.80;;;3.40;;
173;SDS011;75;48.784;9.364;2023-04-24T05:46:53;7.37;;;3.63;;
173;SDS011;75;48.784;9.364;2023-04-24T05:49:39;4.50;;;3.87;;
173;SDS011;75;48.784;9.364;2023-04-24T05:52:24;4.47;;;3.20;;
173;SDS011;75;48.784;9.364;2023-04-24T05:55:08;3.90;;;3.10;;
173;SDS011;75;48.784;9.364;2023-04-24T05:57:53;4.10;;;3.27;;
173;SDS011;75;48.784;9.364;2023-04-24T06:00:37;4.83;;;3.20;;
173;SDS011;75;48.784;9.364;2023-04-24T06:03:25;5.53;;;3.10;;
173;SDS011;75;48.784;9.364;2023-04-24T06:06:10;6.10;;;3.40;;
173;SDS011;75;48.784;9.364;2023-04-24T06:08:54;5.07;;;3.17;;
173;SDS011;75;48.784;9.364;2023-04-24T06:11:39;4.90;;;3.50;;
173;SDS011;75;48.784;9.364;2023-04-24T06:14:24;5.07;;;3.10;;
173;SDS011;75;48.784;9.364;2023-04-24T06:17:09;5.20;;;3.40;;
173;SDS011;75;48.784;9.364;2023-04-24T06:19:54;4.57;;;3.53;;
173;SDS011;75;48.784;9.364;2023-04-24T06:22:38;5.37;;;3.60;;
173;SDS011;75;48.784;9.364;2023-04-24T06:25:26;5.57;;;3.47;;
173;SDS011;75;48.784;9.364;2023-04-24T06:28:12;4.50;;;3.40;;
173;SDS011;75;48.784;9.364;2023-04-24T06:30:56;5.57;;;3.27;;
173;SDS011;75;48.784;9.364;2023-04-24T06:33:41;4.70;;;3.60;;
173;SDS011;75;48.784;9.364;2023-04-24T06:36:25;4.50;;;2.97;;
173;SDS011;75;48.784;9.364;2023-04-24T06:39:10;5.30;;;3.53;;
173;SDS011;75;48.784;9.364;2023-04-24T06:41:54;8.43;;;3.37;;
173;SDS011;75;48.784;9.364;2023-04-24T06:44:39;4.20;;;3.00;;
173;SDS011;75;48.784;9.364;2023-04-24T06:47:24;4.60;;;3.30;;
173;SDS011;75;48.784;9.364;2023-04-24T06:50:08;4.53;;;3.20;;
173;SDS011;75;48.784;9.364;2023-04-24T06:52:53;4.07;;;3.20;;
173;SDS011;75;48.784;9.364;2023-04-24T06:55:37;4.37;;;3.30;;
173;SDS011;75;48.784;9.364;2023-04-24T06:58:22;4.60;;;3.20;;
173;SDS011;75;48.784;9.364;2023-04-24T07:01:06;5.43;;;3.30;;
173;SDS011;75;48.784;9.364;2023-04-24T07:03:51;7.40;;;3.40;;
173;SDS011;75;48.784;9.364;2023-04-24T07:06:35;5.67;;;3.67;;
173;SDS011;75;48.784;9.364;2023-04-24T07:09:22;4.23;;;3.17;;
173;SDS011;75;48.784;9.364;2023-04-24T07:12:07;5.20;;;3.43;;
173;SDS011;75;48.784;9.364;2023-04-24T07:14:51;6.60;;;3.57;;
173;SDS011;75;48.784;9.364;2023-04-24T07:17:36;5.13;;;3.20;;
173;SDS011;75;48.784;9.364;2023-04-24T07:20:22;4.17;;;3.13;;
173;SDS011;75;48.784;9.364;2023-04-24T07:23:06;5.93;;;3.50;;
173;SDS011;75;48.784;9.364;2023-04-24T07:25:51;6.47;;;3.33;;
173;SDS011;75;48.784;9.364;2023-04-24T07:28:36;7.40;;;3.43;;
173;SDS011;75;48.784;9.364;2023-04-24T07:31:20;5.07;;;3.23;;
173;SDS011;75;48.784;9.364;2023-04-24T07:34:05;4.70;;;3.10;;
173;SDS011;75;48.784;9.364;2023-04-24T07:36:49;5.80;;;3.67;;
173;SDS011;75;48.784;9.364;2023-04-24T07:39:34;4.50;;;3.20;;
173;SDS011;75;48.784;9.364;2023-04-24T07:42:19;4.67;;;3.03;;
173;SDS011;75;48.784;9.364;2023-04-24T07:45:03;4.03;;;3.00;;
173;SDS011;75;48.784;9.364;2023-04-24T07:47:48;4.63;;;3.17;;
173;SDS011;75;48.784;9.364;2023-04-24T07:50:34;4.57;;;2.80;;
173;SDS011;75;48.784;9.364;2023-04-24T07:53:19;4.10;;;3.07;;
173;SDS011;75;48.784;9.364;2023-04-24T07:56:04;4.60;;;2.67;;
173;SDS011;75;48.784;9.364;2023-04-24T07:58:49;5.90;;;2.93;;
173;SDS011;75;48.784;9.364;2023-04-24T08:01:33;4.00;;;2.60;;
173;SDS011;75;48.784;9.364;2023-04-24T08:04:18;4.73;;;2.80;;
173;SDS011;75;48.784;9.364;2023-04-24T08:07:02;3.73;;;3.03;;
173;SDS011;75;48.784;9.364;2023-04-24T08:09:47;4.30;;;2.63;;
173;SDS011;75;48.784;9.364;2023-04-24T08:12:31;4.10;;;2.90;;
173;SDS011;75;48.784;9.364;2023-04-24T08:15:16;5.03;;;2.50;;
173;SDS011;75;48.784;9.364;2023-04-24T08:18:00;5.17;;;2.87;;
173;SDS011;75;48.784;9.364;2023-04-24T08:20:45;3.90;;;2.60;;
173;SDS011;75;48.784;9.364;2023-04-24T08:23:29;4.90;;;3.13;;
173;SDS011;75;48.784;9.364;2023-04-24T08:26:14;5.60;;;2.67;;
173;SDS011;75;48.784;9.364;2023-04-24T08:28:58;5.20;;;2.80;;
173;SDS011;75;48.784;9.364;2023-04-24T08:31:43;4.07;;;2.87;;
173;SDS011;75;48.784;9.364;2023-04-24T08:34:28;6.40;;;2.80;;
173;SDS011;75;48.784;9.364;2023-04-24T08:37:12;4.00;;;2.70;;
173;SDS011;75;48.784;9.364;2023-04-24T08:39:57;6.60;;;2.90;;
173;SDS011;75;48.784;9.364;2023-04-24T08:42:42;4.40;;;2.83;;
173;SDS011;75;48.784;9.364;2023-04-24T08:45:27;4.83;;;2.70;;
173;SDS011;75;48.784;9.364;2023-04-24T08:48:12;4.27;;;2.90;;
173;SDS011;75;48.784;9.364;2023-04-24T08:50:57;4.60;;;2.67;;
173;SDS011;75;48.784;9.364;2023-04-24T08:53:43;6.93;;;2.70;;
173;SDS011;75;48.784;9.364;2023-04-24T08:56:28;6.47;;;2.87;;
173;SDS011;75;48.784;9.364;2023-04-24T08:59:14;5.57;;;3.10;;
173;SDS011;75;48.784;9.364;2023-04-24T09:01:59;4.93;;;2.97;;
173;SDS011;75;48.784;9.364;2023-04-24T09:04:44;3.93;;;2.60;;
173;SDS011;75;48.784;9.364;2023-04-24T09:07:30;7.27;;;2.97;;
173;SDS011;75;48.784;9.364;2023-04-24T09:10:16;6.23;;;2.77;;
173;SDS011;75;48.784;9.364;2023-04-24T09:13:00;5.13;;;3.07;;
173;SDS011;75;48.784;9.364;2023-04-24T09:15:45;3.80;;;2.80;;
173;SDS011;75;48.784;9.364;2023-04-24T09:18:30;4.20;;;3.10;;
173;SDS011;75;48.784;9.364;2023-04-24T09:21:14;4.83;;;3.03;;
173;SDS011;75;48.784;9.364;2023-04-24T09:24:00;7.43;;;2.80;;
173;SDS011;75;48.784;9.364;2023-04-24T09:26:45;4.60;;;2.87;;
173;SDS011;75;48.784;9.364;2023-04-24T09:29:30;5.40;;;3.10;;
173;SDS011;75;48.784;9.364;2023-04-24T09:32:20;6.17;;;3.20;;
173;SDS011;75;48.784;9.364;2023-04-24T09:35:09;5.90;;;3.07;;
173;SDS011;75;48.784;9.364;2023-04-24T09:37:55;4.90;;;3.33;;
173;SDS011;75;48.784;9.364;2023-04-24T09:40:42;5.07;;;3.20;;
173;SDS011;75;48.784;9.364;2023-04-24T09:43:26;3.90;;;2.93;;
173;SDS011;75;48.784;9.364;2023-04-24T09:46:11;9.30;;;3.37;;
173;SDS011;75;48.784;9.364;2023-04-24T09:48:56;3.47;;;2.60;;
173;SDS011;75;48.784;9.364;2023-04-24T09:51:41;4.37;;;3.17;;
173;SDS011;75;48.784;9.364;2023-04-24T09:54:26;5.03;;;3.00;;
173;SDS011;75;48.784;9.364;2023-04-24T09:57:10;4.60;;;2.70;;
173;SDS011;75;48.784;9.364;2023-04-24T09:59:56;5.07;;;2.90;;
173;SDS011;75;48.784;9.364;2023-04-24T10:02:41;3.70;;;2.53;;
173;SDS011;75;48.784;9.364;2023-04-24T10:05:28;7.53;;;3.10;;
173;SDS011;75;48.784;9.364;2023-04-24T10:08:13;6.43;;;2.60;;
173;SDS011;75;48.784;9.364;2023-04-24T10:10:58;5.10;;;2.80;;
173;SDS011;75;48.784;9.364;2023-04-24T10:13:43;4.40;;;2.70;;
173;SDS011;75;48.784;9.364;2023-04-24T10:16:28;5.70;;;2.70;;
173;SDS011;75;48.784;9.364;2023-04-24T10:19:14;3.77;;;2.80;;
173;SDS011;75;48.784;9.364;2023-04-24T10:21:59;3.90;;;2.83;;
173;SDS011;75;48.784;9.364;2023-04-24T10:24:43;3.87;;;2.97;;
173;SDS011;75;48.784;9.364;2023-04-24T10:27:28;3.33;;;2.60;;
173;SDS011;75;48.784;9.364;2023-04-24T10:30:14;2.90;;;2.40;;
173;SDS011;75;48.784;9.364;2023-04-24T10:32:59;4.00;;;2.27;;
173;SDS011;75;48.784;9.364;2023-04-24T10:35:44;3.50;;;2.43;;
173;SDS011;75;48.784;9.364;2023-04-24T10:38:31;3.17;;;2.33;;
173;SDS011;75;48.784;9.364;2023-04-24T10:41:16;5.53;;;2.47;;
173;SDS011;75;48.784;9.364;2023-04-24T10:44:11;3.37;;;2.40;;
173;SDS011;75;48.784;9.364;2023-04-24T10:46:56;3.33;;;2.50;;
173;SDS011;75;48.784;9.364;2023-04-24T10:49:41;3.00;;;2.33;;
173;SDS011;75;48.784;9.364;2023-04-24T10:52:43;3.90;;;2.70;;
173;SDS011;75;48.784;9.364;2023-04-24T10:55:45;3.60;;;2.60;;
173;SDS011;75;48.784;9.364;2023-04-24T10:58:37;4.17;;;2.70;;
173;SDS011;75;48.784;9.364;2023-04-24T11:04:11;7.00;;;2.73;;
173;SDS011;75;48.784;9.364;2023-04-24T11:06:55;5.30;;;2.67;;
173;SDS011;75;48.784;9.364;2023-04-24T11:09:40;3.67;;;2.50;;
173;SDS011;75;48.784;9.364;2023-04-24T11:12:26;3.80;;;2.73;;
173;SDS011;75;48.784;9.364;2023-04-24T11:15:11;3.20;;;2.40;;
173;SDS011;75;48.784;9.364;2023-04-24T11:17:56;5.10;;;2.70;;
173;SDS011;75;48.784;9.364;2023-04-24T11:20:42;3.50;;;2.60;;
173;SDS011;75;48.784;9.364;2023-04-24T11:23:27;4.07;;;2.50;;
173;SDS011;75;48.784;9.364;2023-04-24T11:26:21;3.40;;;2.70;;
173;SDS011;75;48.784;9.364;2023-04-24T11:29:15;3.63;;;2.50;;
173;SDS011;75;48.784;9.364;2023-04-24T11:32:05;4.00;;;2.63;;
173;SDS011;75;48.784;9.364;2023-04-24T11:35:02;3.67;;;2.63;;
173;SDS011;75;48.784;9.364;2023-04-24T11:37:48;3.77;;;2.40;;
173;SDS011;75;48.784;9.364;2023-04-24T11:40:33;3.63;;;2.73;;
173;SDS011;75;48.784;9.364;2023-04-24T11:43:17;3.87;;;2.60;;
173;SDS011;75;48.784;9.364;2023-04-24T11:46:03;4.00;;;2.63;;
173;SDS011;75;48.784;9.364;2023-04-24T11:48:47;3.70;;;2.33;;
173;SDS011;75;48.784;9.364;2023-04-24T11:51:32;4.27;;;2.63;;
173;SDS011;75;48.784;9.364;2023-04-24T11:54:17;3.13;;;2.20;;
173;SDS011;75;48.784;9.364;2023-04-24T11:57:03;3.53;;;2.63;;
173;SDS011;75;48.784;9.364;2023-04-24T11:59:49;4.70;;;2.90;;
173;SDS011;75;48.784;9.364;2023-04-24T12:02:34;3.83;;;2.30;;
173;SDS011;75;48.784;9.364;2023-04-24T12:05:19;3.30;;;2.43;;
173;SDS011;75;48.784;9.364;2023-04-24T12:08:04;4.37;;;2.67;;
173;SDS011;75;48.784;9.364;2023-04-24T12:10:50;4.07;;;2.60;;
173;SDS011;75;48.784;9.364;2023-04-24T12:13:35;3.40;;;2.60;;
173;SDS011;75;48.784;9.364;2023-04-24T12:16:20;3.70;;;2.40;;
173;SDS011;75;48.784;9.364;2023-04-24T12:19:04;4.13;;;2.67;;
173;SDS011;75;48.784;9.364;2023-04-24T12:21:59;3.67;;;2.40;;
173;SDS011;75;48.784;9.364;2023-04-24T12:25:03;3.20;;;2.50;;
173;SDS011;75;48.784;9.364;2023-04-24T12:27:55;5.50;;;2.67;;
173;SDS011;75;48.784;9.364;2023-04-24T12:30:54;3.50;;;2.70;;
173;SDS011;75;48.784;9.364;2023-04-24T12:33:39;4.40;;;2.70;;
173;SDS011;75;48.784;9.364;2023-04-24T12:36:23;3.60;;;2.47;;
173;SDS011;75;48.784;9.364;2023-04-24T12:39:16;4.90;;;2.70;;
173;SDS011;75;48.784;9.364;2023-04-24T12:42:01;5.97;;;2.63;;
173;SDS011;75;48.784;9.364;2023-04-24T12:44:46;4.53;;;2.87;;
173;SDS011;75;48.784;9.364;2023-04-24T12:47:31;4.20;;;2.60;;
173;SDS011;75;48.784;9.364;2023-04-24T12:50:16;4.97;;;2.90;;
173;SDS011;75;48.784;9.364;2023-04-24T12:53:00;5.70;;;3.00;;
173;SDS011;75;48.784;9.364;2023-04-24T12:55:45;6.43;;;2.93;;
173;SDS011;75;48.784;9.364;2023-04-24T12:58:36;4.30;;;2.90;;
173;SDS011;75;48.784;9.364;2023-04-24T13:01:20;3.70;;;2.90;;
173;SDS011;75;48.784;9.364;2023-04-24T13:04:05;3.70;;;2.87;;
173;SDS011;75;48.784;9.364;2023-04-24T13:06:50;4.37;;;2.80;;
173;SDS011;75;48.784;9.364;2023-04-24T13:09:34;5.67;;;2.93;;
173;SDS011;75;48.784;9.364;2023-04-24T13:12:19;4.63;;;2.90;;
173;SDS011;75;48.784;9.364;2023-04-24T13:15:03;5.50;;;3.13;;
173;SDS011;75;48.784;9.364;2023-04-24T13:17:49;4.30;;;2.90;;
173;SDS011;75;48.784;9.364;2023-04-24T13:20:33;4.83;;;2.90;;
173;SDS011;75;48.784;9.364;2023-04-24T13:23:18;3.30;;;2.50;;
173;SDS011;75;48.784;9.364;2023-04-24T13:26:03;4.43;;;2.80;;
173;SDS011;75;48.784;9.364;2023-04-24T13:28:49;5.57;;;3.37;;
173;SDS011;75;48.784;9.364;2023-04-24T13:31:33;4.47;;;3.30;;
173;SDS011;75;48.784;9.364;2023-04-24T13:34:18;5.27;;;3.57;;
173;SDS011;75;48.784;9.364;2023-04-24T13:37:03;6.83;;;3.30;;
173;SDS011;75;48.784;9.364;2023-04-24T13:39:47;4.17;;;3.07;;
173;SDS011;75;48.784;9.364;2023-04-24T13:42:32;5.70;;;3.23;;
173;SDS011;75;48.784;9.364;2023-04-24T13:45:16;4.53;;;3.23;;
173;SDS011;75;48.784;9.364;2023-04-24T13:48:01;3.90;;;2.77;;
173;SDS011;75;48.784;9.364;2023-04-24T13:50:46;3.87;;;2.97;;
173;SDS011;75;48.784;9.364;2023-04-24T13:53:33;3.70;;;2.70;;
173;SDS011;75;48.784;9.364;2023-04-24T13:56:22;3.60;;;2.60;;
173;SDS011;75;48.784;9.364;2023-04-24T13:59:06;5.63;;;2.90;;
173;SDS011;75;48.784;9.364;2023-04-24T14:01:52;3.77;;;2.70;;
173;SDS011;75;48.784;9.364;2023-04-24T14:04:36;3.30;;;2.40;;
173;SDS011;75;48.784;9.364;2023-04-24T14:07:21;6.83;;;3.00;;
173;SDS011;75;48.784;9.364;2023-04-24T14:10:06;6.00;;;3.40;;
173;SDS011;75;48.784;9.364;2023-04-24T14:12:50;6.73;;;3.53;;
173;SDS011;75;48.784;9.364;2023-04-24T14:15:36;4.83;;;3.77;;
173;SDS011;75;48.784;9.364;2023-04-24T14:18:21;4.43;;;3.40;;
173;SDS011;75;48.784;9.364;2023-04-24T14:21:05;4.37;;;3.27;;
173;SDS011;75;48.784;9.364;2023-04-24T14:23:50;4.20;;;3.40;;
173;SDS011;75;48.784;9.364;2023-04-24T14:26:34;4.83;;;3.50;;
173;SDS011;75;48.784;9.364;2023-04-24T14:29:19;5.57;;;3.27;;
173;SDS011;75;48.784;9.364;2023-04-24T14:32:04;5.37;;;3.40;;
173;SDS011;75;48.784;9.364;2023-04-24T14:34:48;6.03;;;3.90;;
173;SDS011;75;48.784;9.364;2023-04-24T14:37:33;5.93;;;3.80;;
173;SDS011;75;48.784;9.364;2023-04-24T14:40:19;5.20;;;3.40;;
173;SDS011;75;48.784;9.364;2023-04-24T14:43:03;6.43;;;4.20;;
173;SDS011;75;48.784;9.364;2023-04-24T14:45:48;4.17;;;3.13;;
173;SDS011;75;48.784;9.364;2023-04-24T14:48:33;5.10;;;3.00;;
173;SDS011;75;48.784;9.364;2023-04-24T14:51:18;5.23;;;3.07;;
173;SDS011;75;48.784;9.364;2023-04-24T14:54:03;4.70;;;3.23;;
173;SDS011;75;48.784;9.364;2023-04-24T14:56:47;4.80;;;3.20;;
173;SDS011;75;48.784;9.364;2023-04-24T14:59:32;4.87;;;2.70;;
173;SDS011;75;48.784;9.364;2023-04-24T15:02:17;4.73;;;2.70;;
173;SDS011;75;48.784;9.364;2023-04-24T15:05:01;3.83;;;2.53;;
173;SDS011;75;48.784;9.364;2023-04-24T15:07:45;3.73;;;2.90;;
173;SDS011;75;48.784;9.364;2023-04-24T15:10:30;6.77;;;3.17;;
173;SDS011;75;48.784;9.364;2023-04-24T15:13:15;6.27;;;3.27;;
173;SDS011;75;48.784;9.364;2023-04-24T15:15:59;4.30;;;3.33;;
173;SDS011;75;48.784;9.364;2023-04-24T15:18:44;4.40;;;3.17;;
173;SDS011;75;48.784;9.364;2023-04-24T15:21:28;5.40;;;3.10;;
173;SDS011;75;48.784;9.364;2023-04-24T15:24:13;4.63;;;3.40;;
173;SDS011;75;48.784;9.364;2023-04-24T15:26:58;6.47;;;3.53;;
173;SDS011;75;48.784;9.364;2023-04-24T15:29:44;4.83;;;3.47;;
173;SDS011;75;48.784;9.364;2023-04-24T15:32:29;4.60;;;3.67;;
173;SDS011;75;48.784;9.364;2023-04-24T15:35:14;4.73;;;3.50;;
173;SDS011;75;48.784;9.364;2023-04-24T15:37:59;8.07;;;4.43;;
173;SDS011;75;48.784;9.364;2023-04-24T15:40:44;4.30;;;3.33;;
173;SDS011;75;48.784;9.364;2023-04-24T15:43:28;4.67;;;3.53;;
173;SDS011;75;48.784;9.364;2023-04-24T15:46:14;25.73;;;12.90;;
173;SDS011;75;48.784;9.364;2023-04-24T15:48:59;8.87;;;5.30;;
173;SDS011;75;48.784;9.364;2023-04-24T15:51:43;4.33;;;3.37;;
173;SDS011;75;48.784;9.364;2023-04-24T15:54:28;5.53;;;3.77;;
173;SDS011;75;48.784;9.364;2023-04-24T15:57:13;5.40;;;4.03;;
173;SDS011;75;48.784;9.364;2023-04-24T15:59:57;8.80;;;4.77;;
173;SDS011;75;48.784;9.364;2023-04-24T16:02:42;8.93;;;4.90;;
173;SDS011;75;48.784;9.364;2023-04-24T16:05:26;5.33;;;4.50;;
173;SDS011;75;48.784;9.364;2023-04-24T16:08:11;5.53;;;3.80;;
173;SDS011;75;48.784;9.364;2023-04-24T16:10:57;5.83;;;3.87;;
173;SDS011;75;48.784;9.364;2023-04-24T16:13:42;6.53;;;4.60;;
173;SDS011;75;48.784;9.364;2023-04-24T16:16:26;4.90;;;3.90;;
173;SDS011;75;48.784;9.364;2023-04-24T16:19:11;5.00;;;3.47;;
173;SDS011;75;48.784;9.364;2023-04-24T16:21:56;4.63;;;3.90;;
173;SDS011;75;48.784;9.364;2023-04-24T16:24:41;4.67;;;3.57;;
173;SDS011;75;48.784;9.364;2023-04-24T16:27:27;5.97;;;4.07;;
173;SDS011;75;48.784;9.364;2023-04-24T16:30:11;6.20;;;4.93;;
173;SDS011;75;48.784;9.364;2023-04-24T16:32:56;5.43;;;3.97;;
173;SDS011;75;48.784;9.364;2023-04-24T16:35:40;5.37;;;3.90;;
173;SDS011;75;48.784;9.364;2023-04-24T16:38:26;5.90;;;3.80;;
173;SDS011;75;48.784;9.364;2023-04-24T16:41:11;5.03;;;4.00;;
173;SDS011;75;48.784;9.364;2023-04-24T16:43:56;5.43;;;4.07;;
173;SDS011;75;48.784;9.364;2023-04-24T16:46:40;6.03;;;4.40;;
173;SDS011;75;48.784;9.364;2023-04-24T16:49:25;5.47;;;3.93;;
173;SDS011;75;48.784;9.364;2023-04-24T16:52:13;6.27;;;4.67;;
173;SDS011;75;48.784;9.364;2023-04-24T16:54:59;6.23;;;4.07;;
173;SDS011;75;48.784;9.364;2023-04-24T16:57:43;6.90;;;4.70;;
173;SDS011;75;48.784;9.364;2023-04-24T17:00:28;6.57;;;4.27;;
173;SDS011;75;48.784;9.364;2023-04-24T17:03:13;6.50;;;4.20;;
173;SDS011;75;48.784;9.364;2023-04-24T17:05:57;6.90;;;4.93;;
173;SDS011;75;48.784;9.364;2023-04-24T17:08:41;5.73;;;4.27;;
173;SDS011;75;48.784;9.364;2023-04-24T17:11:26;5.20;;;4.20;;
173;SDS011;75;48.784;9.364;2023-04-24T17:14:11;6.50;;;4.03;;
173;SDS011;75;48.784;9.364;2023-04-24T17:16:56;5.50;;;3.67;;
173;SDS011;75;48.784;9.364;2023-04-24T17:19:40;7.43;;;3.67;;
173;SDS011;75;48.784;9.364;2023-04-24T17:22:25;5.87;;;4.00;;
173;SDS011;75;48.784;9.364;2023-04-24T17:25:09;8.17;;;5.80;;
173;SDS011;75;48.784;9.364;2023-04-24T17:27:54;5.93;;;4.27;;
173;SDS011;75;48.784;9.364;2023-04-24T17:30:38;7.13;;;5.63;;
173;SDS011;75;48.784;9.364;2023-04-24T17:33:23;5.80;;;4.77;;
173;SDS011;75;48.784;9.364;2023-04-24T17:36:08;9.07;;;4.73;;
173;SDS011;75;48.784;9.364;2023-04-24T17:38:52;5.30;;;3.93;;
173;SDS011;75;48.784;9.364;2023-04-24T17:41:37;9.57;;;6.43;;
173;SDS011;75;48.784;9.364;2023-04-24T17:44:21;7.37;;;5.37;;
173;SDS011;75;48.784;9.364;2023-04-24T17:47:06;10.30;;;7.93;;
173;SDS011;75;48.784;9.364;2023-04-24T17:49:51;8.00;;;5.00;;
173;SDS011;75;48.784;9.364;2023-04-24T17:52:35;6.47;;;4.87;;
173;SDS011;75;48.784;9.364;2023-04-24T17:55:20;5.47;;;3.73;;
173;SDS011;75;48.784;9.364;2023-04-24T17:58:04;6.83;;;4.33;;
173;SDS011;75;48.784;9.364;2023-04-24T18:00:49;4.83;;;3.67;;